Time;durP1;ratioP1;P1;durP2;ratioP2;P2;SDS_P1;SDS_P2;PMS_P1;PMS_P2;Temp;Humidity;BMP_temperature;BMP_pressure;BME280_temperature;BME280_humidity;BME280_pressure;Samples;Min_cycle;Max_cycle;Signal;HPM_P1;HPM_P2
2022/11/20 00:01:50;;;;;;;19.20;8.32;;;;;;;-3.84;100.00;101174.28;5014542;28;20033;-95
2022/11/20 00:04:19;;;;;;;18.33;8.75;;;;;;;-3.86;100.00;101184.06;5013292;28;20508;-95
2022/11/20 00:06:56;;;;;;;21.88;9.23;;;;;;;-3.94;100.00;101170.09;5014869;28;20094;-95
2022/11/20 00:09:43;;;;;;;20.57;9.27;;;;;;;-3.84;100.00;101203.09;5028801;28;20029;-95
2022/11/20 00:12:11;;;;;;;18.87;9.33;;;;;;;-4.03;100.00;101164.81;5013874;28;20425;-96
2022/11/20 00:14:49;;;;;;;18.52;9.27;;;;;;;-4.04;100.00;101170.19;5013595;28;20025;-95
2022/11/20 00:17:20;;;;;;;19.92;9.38;;;;;;;-4.13;100.00;101167.50;5013636;28;20029;-95
2022/11/20 00:19:57;;;;;;;15.75;7.80;;;;;;;-4.05;100.00;101181.66;5013214;28;20030;-94
2022/11/20 00:22:35;;;;;;;18.98;8.48;;;;;;;-4.12;100.00;101184.88;5012288;28;20037;-95
2022/11/20 00:25:09;;;;;;;15.82;8.20;;;;;;;-4.29;100.00;101162.16;5012665;28;20042;-95
2022/11/20 00:27:43;;;;;;;17.63;8.47;;;;;;;-4.37;100.00;101159.47;5012448;28;20030;-94
2022/11/20 00:30:36;;;;;;;20.30;8.52;;;;;;;-4.41;100.00;101158.94;5012413;28;20073;-93
2022/11/20 00:33:01;;;;;;;20.55;8.98;;;;;;;-4.22;100.00;101196.38;5010003;28;20465;-93
2022/11/20 00:35:29;;;;;;;18.33;8.80;;;;;;;-4.29;100.00;101183.91;5013677;28;20032;-93
2022/11/20 00:40:27;;;;;;;19.58;8.75;;;;;;;-4.26;100.00;101193.25;5058902;23;20049;-94
2022/11/20 00:42:52;;;;;;;18.43;8.53;;;;;;;-4.39;100.00;101182.34;5013721;28;20036;-94
2022/11/20 00:45:17;;;;;;;18.97;8.73;;;;;;;-4.35;100.00;101184.53;5012287;28;20029;-94
2022/11/20 00:47:43;;;;;;;20.53;9.30;;;;;;;-4.35;100.00;101188.91;5011964;28;20064;-95
2022/11/20 00:50:08;;;;;;;21.27;9.70;;;;;;;-4.39;100.00;101198.88;5011383;28;20098;-95
2022/11/20 00:52:33;;;;;;;19.98;9.50;;;;;;;-4.43;100.00;101187.88;5012429;28;20042;-95
2022/11/20 00:54:59;;;;;;;18.67;8.67;;;;;;;-4.48;100.00;101191.94;5012843;28;20029;-95
2022/11/20 00:57:24;;;;;;;20.27;8.90;;;;;;;-4.52;100.00;101190.56;5013632;28;20030;-94
2022/11/20 00:59:49;;;;;;;19.33;8.07;;;;;;;-4.53;100.00;101181.88;5020718;28;20121;-95
2022/11/20 01:02:16;;;;;;;16.93;8.70;;;;;;;-4.54;100.00;101179.44;5014808;28;20026;-94
2022/11/20 01:04:42;;;;;;;20.67;8.80;;;;;;;-4.54;100.00;101185.47;5019325;28;20029;-96
2022/11/20 01:07:08;;;;;;;21.15;9.75;;;;;;;-4.57;100.00;101191.03;5033139;28;20086;-96
2022/11/20 01:09:33;;;;;;;20.07;9.03;;;;;;;-4.58;100.00;101190.19;5036431;28;20028;-95
2022/11/20 01:11:59;;;;;;;17.33;8.40;;;;;;;-4.65;100.00;101183.09;5014076;28;20507;-95
2022/11/20 01:14:24;;;;;;;18.50;9.10;;;;;;;-4.65;100.00;101189.13;5019281;28;20080;-95
2022/11/20 01:16:53;;;;;;;17.90;8.83;;;;;;;-4.62;100.00;101193.25;5036242;28;20070;-95
2022/11/20 01:19:23;;;;;;;19.48;9.65;;;;;;;-4.59;100.00;101187.75;5035374;28;20014;-95
2022/11/20 01:21:51;;;;;;;20.05;9.80;;;;;;;-4.66;100.00;101184.06;5034684;28;20022;-94
2022/11/20 01:24:19;;;;;;;17.77;8.97;;;;;;;-4.67;100.00;101188.47;5032278;28;20029;-94
2022/11/20 01:26:47;;;;;;;20.33;8.93;;;;;;;-4.71;100.00;101179.28;5014582;28;20287;-95
2022/11/20 01:29:19;;;;;;;22.17;9.80;;;;;;;-4.69;100.00;101181.72;5010774;28;20034;-94
2022/11/20 01:31:44;;;;;;;19.10;9.38;;;;;;;-4.68;100.00;101188.63;5017025;28;20045;-94
2022/11/20 01:34:13;;;;;;;18.75;8.85;;;;;;;-4.67;100.00;101187.66;5023511;28;20036;-95
2022/11/20 01:36:39;;;;;;;19.37;9.17;;;;;;;-4.74;100.00;101167.31;5013223;28;20036;-95
2022/11/20 01:39:07;;;;;;;22.80;9.88;;;;;;;-4.68;100.00;101180.75;5068302;23;20041;-95
2022/11/20 01:44:21;;;;;;;18.75;8.63;;;;;;;-4.80;100.00;101170.53;5032730;28;20052;-96
2022/11/20 01:47:00;;;;;;;17.27;8.57;;;;;;;-4.80;100.00;101181.00;5029166;28;20089;-95
2022/11/20 01:49:40;;;;;;;21.35;8.98;;;;;;;-4.86;100.00;101184.19;5038022;28;20045;-95
2022/11/20 01:52:33;;;;;;;22.07;8.70;;;;;;;-4.95;100.00;101179.84;5038443;28;20021;-95
2022/11/20 01:55:08;;;;;;;19.17;8.50;;;;;;;-4.96;100.00;101178.19;5031898;28;20056;-96
2022/11/20 01:57:35;;;;;;;24.65;8.88;;;;;;;-4.97;100.00;101173.94;5017553;28;20057;-95
2022/11/20 02:00:14;;;;;;;21.27;9.20;;;;;;;-4.91;100.00;101176.78;5014870;28;20033;-95
2022/11/20 02:02:44;;;;;;;20.92;9.82;;;;;;;-4.97;100.00;101172.13;5015755;28;20026;-95
2022/11/20 02:05:28;;;;;;;20.80;9.32;;;;;;;-4.94;100.00;101184.13;5017843;28;20117;-96
2022/11/20 02:07:56;;;;;;;18.37;8.50;;;;;;;-4.95;100.00;101182.47;5017000;28;20579;-96
2022/11/20 02:10:22;;;;;;;19.88;10.73;;;;;;;-5.00;100.00;101169.00;5014417;28;20041;-95
2022/11/20 02:15:36;;;;;;;20.52;9.63;;;;;;;-5.05;100.00;101167.66;5016622;28;20488;-96
2022/11/20 02:18:01;;;;;;;19.13;9.30;;;;;;;-5.05;100.00;101180.72;5013461;28;20386;-96
2022/11/20 02:20:26;;;;;;;19.77;8.83;;;;;;;-5.12;100.00;101176.22;5007819;28;20470;-96
2022/11/20 02:22:59;;;;;;;23.67;9.57;;;;;;;-5.07;100.00;101177.41;4998222;28;20039;-96
2022/11/20 02:25:27;;;;;;;21.90;9.70;;;;;;;-5.00;100.00;101166.38;5000548;28;20109;-95
2022/11/20 02:27:53;;;;;;;20.55;9.38;;;;;;;-4.95;100.00;101153.72;5005161;28;20524;-95
2022/11/20 02:30:18;;;;;;;19.27;9.60;;;;;;;-4.94;100.00;101161.38;5018833;28;20034;-96
2022/11/20 02:32:45;;;;;;;21.60;9.13;;;;;;;-4.87;100.00;101172.06;5019941;28;20026;-96
2022/11/20 02:35:19;;;;;;;26.80;10.40;;;;;;;-4.74;100.00;101166.50;5026961;28;20026;-96
2022/11/20 02:37:48;;;;;;;22.95;9.75;;;;;;;-4.66;100.00;101153.50;5018061;28;20391;-96
2022/11/20 02:40:13;;;;;;;20.70;10.10;;;;;;;-4.57;100.00;101154.41;5016565;28;20069;-96
2022/11/20 02:42:38;;;;;;;22.90;10.10;;;;;;;-4.37;100.00;101154.22;5017871;28;20029;-96
2022/11/20 02:45:05;;;;;;;22.13;9.87;;;;;;;-4.19;100.00;101162.06;5015619;28;20465;-96
2022/11/20 02:47:31;;;;;;;22.98;10.20;;;;;;;-3.99;100.00;101163.53;5014994;28;20030;-96
2022/11/20 02:49:57;;;;;;;21.90;10.73;;;;;;;-3.80;100.00;101154.63;5009559;28;20045;-96
2022/11/20 02:52:22;;;;;;;21.30;11.25;;;;;;;-3.65;100.00;101151.44;5011667;28;20535;-96
2022/11/20 02:54:47;;;;;;;24.23;11.23;;;;;;;-3.62;100.00;101142.47;5005024;28;20031;-96
2022/11/20 02:57:13;;;;;;;24.60;11.53;;;;;;;-3.63;100.00;101159.97;5028920;28;20017;-96
2022/11/20 02:59:38;;;;;;;23.00;10.95;;;;;;;-3.72;100.00;101155.66;5016271;28;20025;-96
2022/11/20 03:02:04;;;;;;;22.97;10.57;;;;;;;-3.83;100.00;101162.78;5016010;28;20022;-96
2022/11/20 03:04:30;;;;;;;23.83;10.98;;;;;;;-3.90;100.00;101156.53;5014731;28;20492;-96
2022/11/20 03:06:55;;;;;;;21.37;10.27;;;;;;;-3.98;100.00;101159.94;5014785;28;20054;-96
2022/11/20 03:09:21;;;;;;;24.30;10.40;;;;;;;-4.11;100.00;101149.06;5015843;28;20036;-96
2022/11/20 03:11:47;;;;;;;21.73;9.70;;;;;;;-4.17;100.00;101145.22;5015057;28;20038;-95
2022/11/20 03:14:13;;;;;;;20.77;10.10;;;;;;;-4.19;100.00;101155.03;5015300;28;20021;-94
2022/11/20 03:16:38;;;;;;;22.00;9.83;;;;;;;-4.23;100.00;101145.84;5014529;28;20389;-93
2022/11/20 03:19:03;;;;;;;21.37;9.67;;;;;;;-4.23;100.00;101147.63;5009876;28;20405;-95
2022/11/20 03:21:29;;;;;;;20.13;8.63;;;;;;;-4.19;100.00;101160.25;5009374;28;20022;-96
2022/11/20 03:23:54;;;;;;;19.07;9.57;;;;;;;-4.19;100.00;101149.78;5000372;28;20053;-96
2022/11/20 03:26:22;;;;;;;20.37;9.57;;;;;;;-4.15;100.00;101153.75;5028533;28;20045;-95
2022/11/20 03:28:52;;;;;;;22.05;10.15;;;;;;;-4.08;100.00;101156.56;5009773;28;20165;-95
2022/11/20 03:31:22;;;;;;;21.73;9.73;;;;;;;-4.08;100.00;101153.97;5020112;28;20102;-96
2022/11/20 03:33:47;;;;;;;18.58;9.63;;;;;;;-4.12;100.00;101142.97;5026047;28;20022;-96
2022/11/20 03:36:14;;;;;;;22.17;9.90;;;;;;;-4.11;100.00;101141.19;5019273;28;20025;-96
2022/11/20 03:38:47;;;;;;;22.15;10.40;;;;;;;-4.08;100.00;101137.44;5029470;28;20033;-96
2022/11/20 03:41:42;;;;;;;21.58;10.02;;;;;;;-4.08;100.00;101124.34;5033768;28;20042;-96
2022/11/20 03:54:37;;;;;;;23.23;10.05;;;;;;;-3.94;100.00;101118.56;5541188;23;20029;-96
2022/11/20 03:59:42;;;;;;;20.73;9.98;;;;;;;-4.15;100.00;101090.94;5053425;22;20061;-96
2022/11/20 04:02:09;;;;;;;22.87;10.47;;;;;;;-4.16;100.00;101084.06;5037106;28;20055;-96
2022/11/20 04:04:43;;;;;;;23.43;10.60;;;;;;;-4.19;100.00;101079.13;5039204;28;20280;-96
2022/11/20 04:07:42;;;;;;;21.73;9.77;;;;;;;-4.02;100.00;101106.22;5059595;28;20085;-96
2022/11/20 04:23:03;;;;;;;20.83;10.33;;;;;;;-4.43;100.00;101083.22;5724361;23;20304;-93
2022/11/20 04:25:28;;;;;;;20.33;10.27;;;;;;;-4.46;100.00;101086.16;5015300;28;20030;-93
2022/11/20 04:27:54;;;;;;;22.90;9.90;;;;;;;-4.31;100.00;101115.22;5014469;28;20038;-93
2022/11/20 04:30:20;;;;;;;22.45;10.02;;;;;;;-4.37;100.00;101107.13;5013021;28;20065;-93
2022/11/20 04:32:45;;;;;;;22.40;9.83;;;;;;;-4.39;100.00;101101.25;5010905;28;20050;-93
2022/11/20 04:35:10;;;;;;;19.67;10.07;;;;;;;-4.44;100.00;101091.22;5006085;28;20041;-95
2022/11/20 04:37:35;;;;;;;23.93;10.27;;;;;;;-4.46;100.00;101088.75;5008826;28;20033;-93
2022/11/20 04:40:01;;;;;;;23.37;10.47;;;;;;;-4.51;100.00;101100.66;5009114;28;20029;-93
2022/11/20 04:42:29;;;;;;;25.73;12.03;;;;;;;-4.58;100.00;101095.22;5013062;28;20026;-93
2022/11/20 04:44:57;;;;;;;25.88;11.98;;;;;;;-4.62;100.00;101096.50;5019503;28;20481;-93
2022/11/20 04:47:22;;;;;;;28.65;11.73;;;;;;;-4.64;100.00;101103.66;5027025;28;20082;-92
2022/11/20 04:49:49;;;;;;;27.33;11.33;;;;;;;-4.72;100.00;101096.56;5021858;28;20401;-93
2022/11/20 04:52:14;;;;;;;21.88;10.38;;;;;;;-4.77;100.00;101091.78;5010355;28;20022;-93
2022/11/20 04:54:39;;;;;;;23.27;10.73;;;;;;;-4.78;100.00;101090.16;5010372;28;20064;-92
2022/11/20 04:57:04;;;;;;;26.63;11.23;;;;;;;-4.72;100.00;101092.13;5011989;28;20022;-93
2022/11/20 04:59:30;;;;;;;24.60;11.43;;;;;;;-4.73;100.00;101082.66;5011541;28;20069;-93
2022/11/20 05:01:55;;;;;;;20.80;11.07;;;;;;;-4.62;100.00;101081.59;5008449;28;20034;-95
2022/11/20 05:04:20;;;;;;;24.45;11.68;;;;;;;-4.60;100.00;101074.44;5011323;28;20030;-93
2022/11/20 05:06:46;;;;;;;29.20;13.27;;;;;;;-4.55;100.00;101089.66;5010755;28;20462;-94
2022/11/20 05:09:12;;;;;;;24.93;11.70;;;;;;;-4.51;100.00;101093.63;5004444;28;20053;-96
2022/11/20 05:11:38;;;;;;;26.35;11.77;;;;;;;-4.48;100.00;101080.25;5010534;28;20528;-93
2022/11/20 05:14:03;;;;;;;22.77;10.93;;;;;;;-4.39;100.00;101077.69;5020764;28;20033;-91
2022/11/20 05:16:28;;;;;;;25.63;11.17;;;;;;;-4.35;100.00;101072.00;5007178;28;20074;-92
2022/11/20 05:18:54;;;;;;;25.58;11.40;;;;;;;-4.27;100.00;101073.84;4993585;28;20030;-93
2022/11/20 05:21:20;;;;;;;24.13;10.90;;;;;;;-4.19;100.00;101073.06;4996404;28;20046;-94
2022/11/20 05:23:46;;;;;;;22.73;9.98;;;;;;;-4.13;100.00;101073.28;5010990;28;20034;-92
2022/11/20 05:26:17;;;;;;;24.67;10.90;;;;;;;-4.11;100.00;101065.28;5012229;28;20057;-93
2022/11/20 05:28:43;;;;;;;24.88;12.05;;;;;;;-4.05;100.00;101062.03;5012911;28;20022;-93
2022/11/20 05:31:11;;;;;;;31.65;12.10;;;;;;;-3.99;100.00;101061.41;5011038;28;20060;-92
2022/11/20 05:33:40;;;;;;;22.33;11.13;;;;;;;-3.96;100.00;101073.38;5013553;28;20049;-91
2022/11/20 05:36:06;;;;;;;28.05;11.45;;;;;;;-3.93;100.00;101069.63;5011481;28;20076;-92
2022/11/20 05:38:32;;;;;;;25.08;11.52;;;;;;;-3.85;100.00;101053.94;5011346;28;20030;-92
2022/11/20 05:41:11;;;;;;;28.63;11.37;;;;;;;-3.77;100.00;101066.25;5009250;28;20181;-94
2022/11/20 05:43:38;;;;;;;27.33;11.90;;;;;;;-3.65;100.00;101065.81;5011406;28;20432;-94
2022/11/20 05:46:05;;;;;;;28.13;11.77;;;;;;;-3.59;100.00;101061.75;5011441;28;20034;-93
2022/11/20 05:48:32;;;;;;;22.38;11.00;;;;;;;-3.54;100.00;101072.56;5004641;28;20060;-94
2022/11/20 05:50:59;;;;;;;25.08;11.23;;;;;;;-3.46;100.00;101077.03;5010779;28;20038;-94
2022/11/20 05:53:24;;;;;;;31.08;12.50;;;;;;;-3.39;100.00;101071.97;5010493;28;20038;-94
2022/11/20 05:56:04;;;;;;;27.90;13.17;;;;;;;-3.36;100.00;101064.59;5011425;28;20556;-94
2022/11/20 05:58:30;;;;;;;25.50;12.10;;;;;;;-3.24;100.00;101077.41;5010553;28;20029;-94
2022/11/20 06:01:07;;;;;;;27.15;12.00;;;;;;;-3.24;100.00;101070.34;5011911;28;20022;-93
2022/11/20 06:03:32;;;;;;;24.88;12.23;;;;;;;-3.11;100.00;101085.63;5014092;28;20082;-94
2022/11/20 06:06:09;;;;;;;26.60;11.90;;;;;;;-2.97;100.00;101094.69;4993709;28;20046;-93
2022/11/20 06:26:41;;;;;;;21.25;10.77;;;;;;;-2.69;100.00;101083.88;4824842;26;20046;-93
2022/11/20 06:29:06;;;;;;;24.60;11.55;;;;;;;-2.65;100.00;101087.81;4992660;28;20046;-94
2022/11/20 06:31:34;;;;;;;22.07;11.17;;;;;;;-2.55;100.00;101092.06;4994890;28;20014;-93
2022/11/20 06:34:00;;;;;;;25.08;12.25;;;;;;;-2.59;100.00;101087.16;4997046;28;20030;-95
2022/11/20 06:36:26;;;;;;;23.00;11.63;;;;;;;-2.52;100.00;101092.56;5004607;28;20094;-96
2022/11/20 06:38:51;;;;;;;22.23;10.82;;;;;;;-2.48;100.00;101098.31;5006237;28;20030;-95
2022/11/20 06:41:20;;;;;;;22.23;11.03;;;;;;;-2.48;100.00;101082.56;4999507;28;20041;-96
2022/11/20 06:44:09;;;;;;;22.75;10.75;;;;;;;-2.59;100.00;101068.81;5051021;23;20069;-94
2022/11/20 06:46:50;;;;;;;28.42;14.30;;;;;;;-2.52;100.00;101078.63;5003160;28;20042;-96
2022/11/20 07:07:40;;;;;;;;;;;;;;;;;;;;;
2022/11/20 07:10:55;;;;;;;;;;;;;;;;;;;;;
2022/11/20 07:19:09;;;;;;;30.52;12.80;;;;;;;-2.35;100.00;101045.31;5057140;23;20097;-95
2022/11/20 07:21:44;;;;;;;22.27;10.83;;;;;;;-2.21;100.00;101051.69;5003635;28;20026;-95
2022/11/20 07:24:22;;;;;;;24.23;12.53;;;;;;;-2.23;100.00;101038.72;5009943;28;20276;-96
2022/11/20 07:26:50;;;;;;;27.15;12.63;;;;;;;-2.01;100.00;101066.06;5012607;28;20030;-91
2022/11/20 07:29:18;;;;;;;22.30;11.32;;;;;;;-2.08;100.00;101043.28;5008553;28;20395;-93
2022/11/20 07:31:48;;;;;;;22.73;12.05;;;;;;;-1.96;100.00;101048.97;5011284;28;20445;-92
2022/11/20 07:34:16;;;;;;;23.23;12.13;;;;;;;-1.83;100.00;101054.53;5007595;28;20029;-92
2022/11/20 07:36:54;;;;;;;22.23;12.18;;;;;;;-1.87;100.00;101042.72;5007577;28;20025;-92
2022/11/20 07:39:32;;;;;;;;;;;;;;;;;;;;;
2022/11/20 07:42:00;;;;;;;22.10;12.00;;;;;;;-1.78;100.00;101044.31;5011550;28;20774;-92
2022/11/20 07:44:48;;;;;;;24.15;12.63;;;;;;;-1.85;100.00;101025.78;5012571;28;20072;-92
2022/11/20 07:47:24;;;;;;;23.88;11.93;;;;;;;-1.84;100.00;101040.56;5011892;28;20052;-92
2022/11/20 07:49:52;;;;;;;25.77;11.48;;;;;;;-1.61;100.00;101062.63;5011067;28;20076;-91
2022/11/20 07:52:17;;;;;;;24.60;12.13;;;;;;;-1.71;100.00;101050.53;5000406;28;20026;-91
2022/11/20 07:54:43;;;;;;;21.80;11.50;;;;;;;-1.49;100.00;101065.72;5002199;28;20462;-91
2022/11/20 07:57:08;;;;;;;24.47;12.27;;;;;;;-1.44;100.00;101061.56;5012009;28;20046;-91
2022/11/20 07:59:38;;;;;;;23.40;11.00;;;;;;;-1.44;100.00;101058.13;5011987;28;20040;-91
2022/11/20 08:02:03;;;;;;;22.88;11.38;;;;;;;-1.34;100.00;101066.63;5010529;28;20109;-92
2022/11/20 08:04:39;;;;;;;23.33;12.57;;;;;;;-1.29;100.00;101071.38;5009579;28;20109;-90
2022/11/20 08:07:04;;;;;;;24.98;12.25;;;;;;;-1.20;100.00;101074.78;5015067;28;20064;-91
2022/11/20 08:09:29;;;;;;;21.93;11.63;;;;;;;-1.15;100.00;101075.88;5012759;28;20026;-90
2022/11/20 08:14:38;;;;;;;22.03;10.63;;;;;;;-1.01;100.00;101070.88;4998900;28;20332;-90
2022/11/20 08:17:04;;;;;;;22.25;12.43;;;;;;;-0.98;100.00;101067.88;5009802;28;20018;-90
2022/11/20 08:19:31;;;;;;;23.20;11.77;;;;;;;-1.01;100.00;101057.72;5012330;28;20477;-90
2022/11/20 08:21:56;;;;;;;22.40;12.00;;;;;;;-0.86;100.00;101058.59;5012524;28;20026;-90
2022/11/20 08:24:22;;;;;;;27.70;12.53;;;;;;;-0.82;100.00;101059.88;5017233;28;20291;-92
2022/11/20 08:30:08;;;;;;;21.33;11.30;;;;;;;-0.83;100.00;101021.41;4992978;28;20149;-91
2022/11/20 08:33:03;;;;;;;24.83;11.67;;;;;;;-0.62;100.00;101040.97;5020917;28;20036;-90
2022/11/20 08:35:47;;;;;;;;;;;;;;;;;;;;;
2022/11/20 08:38:15;;;;;;;24.35;12.73;;;;;;;-0.46;100.00;101061.06;5019089;28;20120;-91
2022/11/20 08:41:23;;;;;;;22.20;11.68;;;;;;;-0.39;100.00;101061.97;5028595;28;20048;-91
2022/11/20 08:46:03;;;;;;;26.95;12.80;;;;;;;-0.26;100.00;101063.16;5623442;23;20050;-92
2022/11/20 08:48:51;;;;;;;;;;;;;;;;;;;;;
2022/11/20 08:51:20;;;;;;;25.57;12.03;;;;;;;-0.33;100.00;101044.63;5013841;28;20297;-91
2022/11/20 08:53:56;;;;;;;;;;;;;;;;;;;;;
2022/11/20 08:56:29;;;;;;;26.40;12.60;;;;;;;-0.02;100.00;101039.19;5030820;28;20049;-91
2022/11/20 08:59:01;;;;;;;22.23;12.82;;;;;;;0.11;100.00;101045.63;5032731;28;20089;-92
2022/11/20 09:01:27;;;;;;;24.90;12.93;;;;;;;0.26;100.00;101056.19;5028855;28;20022;-93
2022/11/20 09:03:56;;;;;;;21.63;12.07;;;;;;;0.26;100.00;101038.56;5028814;28;20421;-91
2022/11/20 09:06:22;;;;;;;24.20;12.63;;;;;;;0.41;100.00;101058.81;5017510;28;20088;-91
2022/11/20 09:08:47;;;;;;;26.03;13.27;;;;;;;0.48;100.00;101050.97;5016842;28;20281;-91
2022/11/20 09:11:12;;;;;;;23.43;12.70;;;;;;;0.46;100.00;101048.50;5016098;28;20101;-91
2022/11/20 09:13:38;;;;;;;23.93;12.17;;;;;;;0.47;100.00;101039.59;5015775;28;20014;-92
2022/11/20 09:16:08;;;;;;;22.50;12.47;;;;;;;0.58;100.00;101051.47;5012197;28;20113;-90
2022/11/20 09:18:37;;;;;;;24.00;12.57;;;;;;;0.66;100.00;101051.38;5010939;28;20030;-92
2022/11/20 09:21:05;;;;;;;25.10;13.57;;;;;;;0.74;100.00;101045.97;5014609;28;20516;-91
2022/11/20 09:23:35;;;;;;;26.55;13.30;;;;;;;0.83;100.00;101041.41;5025227;28;20017;-92
2022/11/20 09:29:33;;;;;;;29.17;13.52;;;;;;;0.83;100.00;101012.38;4990492;28;20093;-91
2022/11/20 09:31:58;;;;;;;30.13;13.07;;;;;;;0.83;100.00;101006.28;5019883;28;20034;-95
2022/11/20 09:34:24;;;;;;;28.37;13.73;;;;;;;0.99;100.00;101015.78;5033048;28;20053;-94
2022/11/20 09:36:49;;;;;;;25.00;13.37;;;;;;;1.11;100.00;101024.81;5028245;28;20543;-94
2022/11/20 09:39:23;;;;;;;28.10;13.57;;;;;;;1.22;100.00;101020.84;5030160;28;20133;-95
2022/11/20 09:42:21;;;;;;;30.23;13.25;;;;;;;1.33;100.00;101022.16;5003425;28;20030;-93
2022/11/20 09:45:01;;;;;;;25.58;13.80;;;;;;;1.36;100.00;101012.03;5010824;28;20520;-93
2022/11/20 09:47:45;;;;;;;27.67;13.13;;;;;;;1.50;100.00;101017.41;5012970;28;20065;-93
2022/11/20 09:50:25;;;;;;;25.80;12.85;;;;;;;1.58;100.00;101009.34;5010497;28;20066;-94
2022/11/20 09:53:16;;;;;;;30.60;14.00;;;;;;;1.72;100.00;101012.06;5003635;28;20038;-92
2022/11/20 09:55:47;;;;;;;29.07;13.70;;;;;;;1.80;100.00;101009.25;5011605;28;20022;-92
2022/11/20 09:58:59;;;;;;;31.77;14.57;;;;;;;1.73;100.00;100989.91;5011365;28;20320;-91
2022/11/20 10:09:43;;;;;;;;;;;;;;;;;;;;;
2022/11/20 10:12:16;;;;;;;38.25;15.20;;;;;;;1.65;100.00;100991.69;5004707;28;20034;-90
2022/11/20 10:15:05;;;;;;;47.78;18.02;;;;;;;1.66;100.00;100992.50;5010374;28;20037;-90
2022/11/20 10:17:44;;;;;;;48.15;17.58;;;;;;;1.70;100.00;100980.56;4999593;28;20029;-91
2022/11/20 10:20:37;;;;;;;45.77;15.60;;;;;;;1.85;100.00;100974.31;5005900;28;20436;-91
2022/11/20 10:23:08;;;;;;;49.50;17.60;;;;;;;1.96;100.00;100977.22;5015971;28;20505;-91
2022/11/20 10:25:40;;;;;;;45.58;16.00;;;;;;;1.99;100.00;100957.50;5014914;28;20046;-91
2022/11/20 10:28:24;;;;;;;46.85;17.85;;;;;;;2.06;100.00;100949.59;5015532;28;20495;-91
2022/11/20 10:31:00;;;;;;;47.35;18.05;;;;;;;2.09;100.00;100933.34;5014350;28;20519;-91
2022/11/20 10:33:29;;;;;;;55.17;19.48;;;;;;;2.18;100.00;100926.03;4995840;28;20109;-91
2022/11/20 10:36:26;;;;;;;48.77;18.00;;;;;;;2.30;100.00;100913.84;4995045;28;20053;-90
2022/11/20 10:39:00;;;;;;;45.63;17.67;;;;;;;2.39;100.00;100914.50;5008871;28;21040;-90
2022/11/20 10:41:34;;;;;;;48.63;18.23;;;;;;;2.43;100.00;100907.78;5017682;28;20106;-91
2022/11/20 10:47:18;;;;;;;58.15;21.15;;;;;;;2.49;100.00;100898.22;5012552;28;20037;-91
2022/11/20 10:49:51;;;;;;;50.95;18.58;;;;;;;2.53;100.00;100888.88;5016021;28;20096;-90
2022/11/20 10:52:50;;;;;;;50.63;17.10;;;;;;;2.58;100.00;100889.88;5016044;28;20115;-90
2022/11/20 10:55:45;;;;;;;47.00;17.23;;;;;;;2.54;100.00;100887.84;5014992;28;20026;-91
2022/11/20 10:58:22;;;;;;;47.97;17.70;;;;;;;2.55;100.00;100882.38;5022050;28;20273;-92
2022/11/20 11:00:47;;;;;;;51.60;20.30;;;;;;;2.46;100.00;100878.28;5019718;28;20034;-90
2022/11/20 11:03:31;;;;;;;55.92;19.63;;;;;;;2.47;100.00;100871.97;5016553;28;20032;-91
2022/11/20 11:06:03;;;;;;;48.47;18.17;;;;;;;2.45;100.00;100866.09;5022427;28;20052;-93
2022/11/20 11:08:37;;;;;;;54.17;19.15;;;;;;;2.51;100.00;100857.34;5012918;28;20045;-92
2022/11/20 11:11:17;;;;;;;51.35;18.75;;;;;;;2.68;100.00;100868.31;5015961;28;20037;-92
2022/11/20 11:13:43;;;;;;;50.47;19.63;;;;;;;2.76;100.00;100851.41;5020174;28;20030;-91
2022/11/20 11:16:23;;;;;;;53.47;21.27;;;;;;;2.87;100.00;100856.09;5030649;28;20026;-92
2022/11/20 11:18:49;;;;;;;58.55;21.83;;;;;;;2.85;100.00;100855.50;5030724;28;20026;-94
2022/11/20 11:21:23;;;;;;;52.17;19.87;;;;;;;2.84;100.00;100853.88;5028923;28;20045;-91
2022/11/20 11:24:00;;;;;;;56.10;20.33;;;;;;;2.78;100.00;100849.38;5032199;28;20060;-90
2022/11/20 11:26:26;;;;;;;54.97;19.60;;;;;;;2.73;100.00;100857.94;5005537;28;20034;-91
2022/11/20 11:28:58;;;;;;;56.28;20.73;;;;;;;2.74;100.00;100858.75;5002061;28;20022;-91
2022/11/20 11:31:32;;;;;;;54.08;20.33;;;;;;;2.78;100.00;100859.97;5033135;28;20667;-91
2022/11/20 11:34:14;;;;;;;64.25;23.67;;;;;;;2.80;100.00;100851.84;5032758;28;20036;-93
2022/11/20 11:36:40;;;;;;;58.10;22.83;;;;;;;2.75;100.00;100857.72;5032106;28;20033;-92
2022/11/20 11:39:14;;;;;;;56.27;22.27;;;;;;;2.69;100.00;100850.63;5030418;28;20026;-93
2022/11/20 11:41:40;;;;;;;58.30;21.75;;;;;;;2.62;100.00;100855.91;5023055;28;20037;-93
2022/11/20 11:47:25;;;;;;;57.28;20.63;;;;;;;2.58;100.00;100828.25;5020559;28;20061;-92
2022/11/20 11:50:20;;;;;;;54.85;20.98;;;;;;;2.60;100.00;100830.66;5015204;28;20030;-91
2022/11/20 11:52:54;;;;;;;58.20;20.70;;;;;;;2.58;100.00;100823.75;5014842;28;20048;-90
2022/11/20 11:55:40;;;;;;;56.92;21.60;;;;;;;2.57;100.00;100816.81;5012601;28;20500;-88
2022/11/20 11:58:35;;;;;;;56.15;19.67;;;;;;;2.57;100.00;100811.53;5013227;28;20044;-90
2022/11/20 12:01:11;;;;;;;53.30;20.52;;;;;;;2.68;100.00;100802.16;5011455;28;20140;-89
2022/11/20 12:03:41;;;;;;;55.20;20.88;;;;;;;2.73;100.00;100791.00;5016214;28;20033;-91
2022/11/20 12:06:17;;;;;;;52.55;20.73;;;;;;;2.76;100.00;100793.19;5015362;28;20027;-90
2022/11/20 12:08:55;;;;;;;52.00;20.80;;;;;;;2.78;100.00;100785.88;4995868;28;20101;-90
2022/11/20 12:11:39;;;;;;;53.20;21.07;;;;;;;2.75;100.00;100785.47;4998542;28;20288;-92
2022/11/20 12:14:19;;;;;;;51.00;20.42;;;;;;;2.75;100.00;100774.88;5001426;28;20076;-89
2022/11/20 12:16:48;;;;;;;61.17;22.23;;;;;;;2.80;100.00;100767.16;5006250;28;20087;-86
2022/11/20 12:19:14;;;;;;;55.50;20.77;;;;;;;2.84;100.00;100742.69;5011309;28;20068;-91
2022/11/20 12:21:58;;;;;;;53.63;21.90;;;;;;;2.87;100.00;100721.13;5009582;28;20057;-91
2022/11/20 12:24:52;;;;;;;59.20;22.33;;;;;;;2.91;100.00;100731.28;5011930;28;20034;-93
2022/11/20 12:28:00;;;;;;;68.57;25.15;;;;;;;2.94;100.00;100729.03;5009998;28;20025;-92
2022/11/20 12:30:25;;;;;;;58.05;22.55;;;;;;;2.99;100.00;100720.44;4992537;28;20124;-91
2022/11/20 12:33:28;;;;;;;61.17;24.27;;;;;;;3.10;100.00;100714.53;5003703;28;20057;-91
2022/11/20 12:36:17;;;;;;;63.17;23.17;;;;;;;3.20;100.00;100719.34;5018329;28;20064;-91
2022/11/20 12:39:10;;;;;;;58.88;23.73;;;;;;;3.22;100.00;100716.50;5019712;28;20489;-95
2022/11/20 12:48:04;;;;;;;58.13;21.30;;;;;;;3.44;100.00;100699.25;5014710;28;20133;-93
2022/11/20 12:50:40;;;;;;;60.50;22.77;;;;;;;3.51;100.00;100698.38;5009287;28;20037;-93
2022/11/20 12:53:49;;;;;;;58.00;20.83;;;;;;;3.60;100.00;100691.81;5013199;28;20038;-94
2022/11/20 12:56:33;;;;;;;58.83;22.52;;;;;;;3.67;100.00;100686.47;5005959;28;20129;-93
2022/11/20 12:59:19;;;;;;;56.95;22.27;;;;;;;3.72;100.00;100679.50;5011987;28;20077;-94
2022/11/20 13:01:52;;;;;;;54.70;21.45;;;;;;;3.81;100.00;100658.03;5012309;28;20030;-93
2022/11/20 13:04:32;;;;;;;59.03;22.33;;;;;;;3.85;100.00;100651.25;5012897;28;20026;-93
2022/11/20 13:06:59;;;;;;;55.75;22.20;;;;;;;3.81;100.00;100634.19;5011051;28;20033;-93
2022/11/20 13:09:26;;;;;;;54.23;21.07;;;;;;;3.78;100.00;100638.88;5012601;28;20038;-94
2022/11/20 13:11:54;;;;;;;56.15;21.25;;;;;;;3.76;100.00;100640.94;5012511;28;20033;-93
2022/11/20 13:14:32;;;;;;;52.85;21.60;;;;;;;3.73;100.00;100630.75;5012538;28;20037;-92
2022/11/20 13:17:05;;;;;;;53.55;22.13;;;;;;;3.75;100.00;100628.72;5012506;28;20041;-93
2022/11/20 13:19:31;;;;;;;59.05;23.85;;;;;;;3.72;100.00;100615.88;5012606;28;20030;-94
2022/11/20 13:21:56;;;;;;;55.80;21.40;;;;;;;3.77;100.00;100621.34;5012824;28;20034;-93
2022/11/20 13:24:23;;;;;;;57.27;21.97;;;;;;;3.79;100.00;100611.34;5016770;28;20534;-92
2022/11/20 13:27:08;;;;;;;50.38;19.63;;;;;;;3.84;100.00;100602.72;5013602;28;20507;-91